sensor_id;sensor_type;location;lat;lon;timestamp;P1;durP1;ratioP1;P2;durP2;ratioP2
22172;SDS011;11252;50.596;17.648;2022-12-10T00:01:48;108.77;;;65.33;;
22172;SDS011;11252;50.596;17.648;2022-12-10T00:04:16;109.87;;;65.07;;
22172;SDS011;11252;50.596;17.648;2022-12-10T00:06:44;106.47;;;63.23;;
22172;SDS011;11252;50.596;17.648;2022-12-10T00:09:13;116.27;;;67.63;;
22172;SDS011;11252;50.596;17.648;2022-12-10T00:11:43;107.93;;;64.93;;
22172;SDS011;11252;50.596;17.648;2022-12-10T00:14:12;117.13;;;67.87;;
22172;SDS011;11252;50.596;17.648;2022-12-10T00:16:40;109.33;;;63.10;;
22172;SDS011;11252;50.596;17.648;2022-12-10T00:19:08;110.00;;;64.60;;
22172;SDS011;11252;50.596;17.648;2022-12-10T00:21:36;113.17;;;66.33;;
22172;SDS011;11252;50.596;17.648;2022-12-10T00:24:04;112.23;;;63.13;;
22172;SDS011;11252;50.596;17.648;2022-12-10T00:26:34;106.50;;;64.73;;
22172;SDS011;11252;50.596;17.648;2022-12-10T00:29:04;106.20;;;63.07;;
22172;SDS011;11252;50.596;17.648;2022-12-10T00:31:34;113.40;;;66.33;;
22172;SDS011;11252;50.596;17.648;2022-12-10T00:34:03;106.57;;;65.70;;
22172;SDS011;11252;50.596;17.648;2022-12-10T00:36:34;109.37;;;65.90;;
22172;SDS011;11252;50.596;17.648;2022-12-10T00:39:04;109.10;;;65.97;;
22172;SDS011;11252;50.596;17.648;2022-12-10T00:41:32;102.50;;;63.10;;
22172;SDS011;11252;50.596;17.648;2022-12-10T00:43:59;105.30;;;63.60;;
22172;SDS011;11252;50.596;17.648;2022-12-10T00:46:27;106.43;;;62.10;;
22172;SDS011;11252;50.596;17.648;2022-12-10T00:48:55;105.47;;;63.63;;
22172;SDS011;11252;50.596;17.648;2022-12-10T00:51:25;109.30;;;65.37;;
22172;SDS011;11252;50.596;17.648;2022-12-10T00:53:54;115.57;;;65.47;;
22172;SDS011;11252;50.596;17.648;2022-12-10T00:56:24;105.73;;;63.80;;
22172;SDS011;11252;50.596;17.648;2022-12-10T00:58:56;106.47;;;64.43;;
22172;SDS011;11252;50.596;17.648;2022-12-10T01:01:26;105.77;;;63.07;;
22172;SDS011;11252;50.596;17.648;2022-12-10T01:03:56;98.77;;;60.53;;
22172;SDS011;11252;50.596;17.648;2022-12-10T01:06:30;103.47;;;62.90;;
22172;SDS011;11252;50.596;17.648;2022-12-10T01:09:02;111.57;;;63.90;;
22172;SDS011;11252;50.596;17.648;2022-12-10T01:11:34;105.20;;;61.27;;
22172;SDS011;11252;50.596;17.648;2022-12-10T01:14:04;104.57;;;61.67;;
22172;SDS011;11252;50.596;17.648;2022-12-10T01:16:36;107.90;;;63.00;;
22172;SDS011;11252;50.596;17.648;2022-12-10T01:19:04;107.17;;;63.10;;
22172;SDS011;11252;50.596;17.648;2022-12-10T01:21:32;106.43;;;64.27;;
22172;SDS011;11252;50.596;17.648;2022-12-10T01:23:59;109.60;;;63.63;;
22172;SDS011;11252;50.596;17.648;2022-12-10T01:26:28;109.80;;;64.43;;
22172;SDS011;11252;50.596;17.648;2022-12-10T01:28:58;106.30;;;62.33;;
22172;SDS011;11252;50.596;17.648;2022-12-10T01:31:36;109.47;;;63.40;;
22172;SDS011;11252;50.596;17.648;2022-12-10T01:34:05;105.63;;;62.77;;
22172;SDS011;11252;50.596;17.648;2022-12-10T01:36:35;111.03;;;62.93;;
22172;SDS011;11252;50.596;17.648;2022-12-10T01:39:05;107.30;;;61.13;;
22172;SDS011;11252;50.596;17.648;2022-12-10T01:41:36;117.23;;;62.30;;
22172;SDS011;11252;50.596;17.648;2022-12-10T01:46:36;113.10;;;62.97;;
22172;SDS011;11252;50.596;17.648;2022-12-10T01:49:06;108.27;;;62.20;;
22172;SDS011;11252;50.596;17.648;2022-12-10T01:51:39;112.90;;;63.70;;
22172;SDS011;11252;50.596;17.648;2022-12-10T01:54:09;110.80;;;60.60;;
22172;SDS011;11252;50.596;17.648;2022-12-10T01:56:40;113.27;;;62.83;;
22172;SDS011;11252;50.596;17.648;2022-12-10T01:59:10;109.93;;;62.63;;
22172;SDS011;11252;50.596;17.648;2022-12-10T02:04:33;114.93;;;62.57;;
22172;SDS011;11252;50.596;17.648;2022-12-10T02:07:39;115.53;;;64.63;;
22172;SDS011;11252;50.596;17.648;2022-12-10T02:10:26;105.83;;;59.73;;
22172;SDS011;11252;50.596;17.648;2022-12-10T02:13:19;115.00;;;64.03;;
22172;SDS011;11252;50.596;17.648;2022-12-10T02:16:14;112.63;;;63.13;;
22172;SDS011;11252;50.596;17.648;2022-12-10T02:18:55;114.70;;;63.43;;
22172;SDS011;11252;50.596;17.648;2022-12-10T02:21:39;105.73;;;61.57;;
22172;SDS011;11252;50.596;17.648;2022-12-10T02:24:10;105.27;;;58.63;;
22172;SDS011;11252;50.596;17.648;2022-12-10T02:26:51;109.93;;;61.33;;
22172;SDS011;11252;50.596;17.648;2022-12-10T02:29:31;112.97;;;62.77;;
22172;SDS011;11252;50.596;17.648;2022-12-10T02:32:06;112.90;;;59.40;;
22172;SDS011;11252;50.596;17.648;2022-12-10T02:34:40;112.00;;;60.63;;
22172;SDS011;11252;50.596;17.648;2022-12-10T02:37:12;114.93;;;61.13;;
22172;SDS011;11252;50.596;17.648;2022-12-10T02:39:45;115.60;;;62.70;;
22172;SDS011;11252;50.596;17.648;2022-12-10T02:42:15;105.10;;;59.37;;
22172;SDS011;11252;50.596;17.648;2022-12-10T02:44:44;101.73;;;58.93;;
22172;SDS011;11252;50.596;17.648;2022-12-10T02:47:13;104.13;;;57.70;;
22172;SDS011;11252;50.596;17.648;2022-12-10T02:49:43;109.23;;;60.00;;
22172;SDS011;11252;50.596;17.648;2022-12-10T02:52:15;106.30;;;59.70;;
22172;SDS011;11252;50.596;17.648;2022-12-10T02:54:46;106.33;;;57.90;;
22172;SDS011;11252;50.596;17.648;2022-12-10T03:00:16;105.10;;;58.23;;
22172;SDS011;11252;50.596;17.648;2022-12-10T03:13:23;107.77;;;58.33;;
22172;SDS011;11252;50.596;17.648;2022-12-10T03:15:56;107.80;;;57.80;;
22172;SDS011;11252;50.596;17.648;2022-12-10T03:18:25;103.40;;;56.73;;
22172;SDS011;11252;50.596;17.648;2022-12-10T03:20:56;104.20;;;55.00;;
22172;SDS011;11252;50.596;17.648;2022-12-10T03:23:28;104.63;;;55.53;;
22172;SDS011;11252;50.596;17.648;2022-12-10T03:25:59;102.77;;;55.90;;
22172;SDS011;11252;50.596;17.648;2022-12-10T03:28:30;101.50;;;55.30;;
22172;SDS011;11252;50.596;17.648;2022-12-10T03:31:00;106.37;;;55.57;;
22172;SDS011;11252;50.596;17.648;2022-12-10T03:33:30;97.10;;;55.23;;
22172;SDS011;11252;50.596;17.648;2022-12-10T03:36:00;102.07;;;54.20;;
22172;SDS011;11252;50.596;17.648;2022-12-10T03:38:29;107.90;;;54.60;;
22172;SDS011;11252;50.596;17.648;2022-12-10T03:40:57;97.47;;;51.87;;
22172;SDS011;11252;50.596;17.648;2022-12-10T03:43:24;96.07;;;51.70;;
22172;SDS011;11252;50.596;17.648;2022-12-10T03:45:52;101.63;;;54.50;;
22172;SDS011;11252;50.596;17.648;2022-12-10T03:48:19;102.77;;;54.97;;
22172;SDS011;11252;50.596;17.648;2022-12-10T03:50:46;100.97;;;51.63;;
22172;SDS011;11252;50.596;17.648;2022-12-10T03:53:14;98.63;;;51.50;;
22172;SDS011;11252;50.596;17.648;2022-12-10T03:55:41;102.93;;;54.40;;
22172;SDS011;11252;50.596;17.648;2022-12-10T03:58:09;101.60;;;52.53;;
22172;SDS011;11252;50.596;17.648;2022-12-10T04:00:42;97.87;;;56.87;;
22172;SDS011;11252;50.596;17.648;2022-12-10T04:03:09;95.90;;;51.47;;
22172;SDS011;11252;50.596;17.648;2022-12-10T04:05:40;100.03;;;53.10;;
22172;SDS011;11252;50.596;17.648;2022-12-10T04:08:07;102.10;;;51.90;;
22172;SDS011;11252;50.596;17.648;2022-12-10T04:10:38;98.43;;;52.23;;
22172;SDS011;11252;50.596;17.648;2022-12-10T04:13:05;94.90;;;50.13;;
22172;SDS011;11252;50.596;17.648;2022-12-10T04:15:51;96.70;;;50.87;;
22172;SDS011;11252;50.596;17.648;2022-12-10T04:18:36;99.73;;;52.97;;
22172;SDS011;11252;50.596;17.648;2022-12-10T04:21:04;93.10;;;49.63;;
22172;SDS011;11252;50.596;17.648;2022-12-10T04:23:50;95.20;;;49.80;;
22172;SDS011;11252;50.596;17.648;2022-12-10T04:26:36;92.10;;;49.80;;
22172;SDS011;11252;50.596;17.648;2022-12-10T04:29:19;97.23;;;50.10;;
22172;SDS011;11252;50.596;17.648;2022-12-10T04:31:48;99.30;;;51.67;;
22172;SDS011;11252;50.596;17.648;2022-12-10T04:34:15;101.33;;;50.43;;
22172;SDS011;11252;50.596;17.648;2022-12-10T04:36:44;97.70;;;50.90;;
22172;SDS011;11252;50.596;17.648;2022-12-10T04:39:12;100.63;;;52.00;;
22172;SDS011;11252;50.596;17.648;2022-12-10T04:41:41;93.20;;;48.87;;
22172;SDS011;11252;50.596;17.648;2022-12-10T04:44:10;93.20;;;48.67;;
22172;SDS011;11252;50.596;17.648;2022-12-10T04:46:38;97.73;;;49.13;;
22172;SDS011;11252;50.596;17.648;2022-12-10T04:49:06;98.40;;;49.57;;
22172;SDS011;11252;50.596;17.648;2022-12-10T04:51:34;97.33;;;50.20;;
22172;SDS011;11252;50.596;17.648;2022-12-10T04:54:01;99.33;;;48.90;;
22172;SDS011;11252;50.596;17.648;2022-12-10T04:56:29;96.87;;;51.00;;
22172;SDS011;11252;50.596;17.648;2022-12-10T04:58:57;96.20;;;48.17;;
22172;SDS011;11252;50.596;17.648;2022-12-10T05:01:25;94.83;;;48.60;;
22172;SDS011;11252;50.596;17.648;2022-12-10T05:03:54;100.93;;;49.73;;
22172;SDS011;11252;50.596;17.648;2022-12-10T05:06:24;109.40;;;52.90;;
22172;SDS011;11252;50.596;17.648;2022-12-10T05:08:52;101.93;;;50.97;;
22172;SDS011;11252;50.596;17.648;2022-12-10T05:11:20;95.60;;;49.73;;
22172;SDS011;11252;50.596;17.648;2022-12-10T05:13:51;99.70;;;48.50;;
22172;SDS011;11252;50.596;17.648;2022-12-10T05:16:20;105.03;;;49.37;;
22172;SDS011;11252;50.596;17.648;2022-12-10T05:18:49;96.40;;;48.30;;
22172;SDS011;11252;50.596;17.648;2022-12-10T05:21:18;98.20;;;47.73;;
22172;SDS011;11252;50.596;17.648;2022-12-10T05:23:47;97.60;;;47.70;;
22172;SDS011;11252;50.596;17.648;2022-12-10T05:26:18;99.17;;;50.30;;
22172;SDS011;11252;50.596;17.648;2022-12-10T05:28:48;101.70;;;50.53;;
22172;SDS011;11252;50.596;17.648;2022-12-10T05:31:19;92.97;;;47.70;;
22172;SDS011;11252;50.596;17.648;2022-12-10T05:33:52;105.07;;;52.47;;
22172;SDS011;11252;50.596;17.648;2022-12-10T05:36:20;101.63;;;48.83;;
22172;SDS011;11252;50.596;17.648;2022-12-10T05:38:49;105.67;;;50.70;;
22172;SDS011;11252;50.596;17.648;2022-12-10T05:41:19;99.77;;;47.23;;
22172;SDS011;11252;50.596;17.648;2022-12-10T05:43:48;97.50;;;46.33;;
22172;SDS011;11252;50.596;17.648;2022-12-10T05:46:18;97.50;;;46.57;;
22172;SDS011;11252;50.596;17.648;2022-12-10T05:48:47;102.47;;;48.73;;
22172;SDS011;11252;50.596;17.648;2022-12-10T05:51:23;115.60;;;55.40;;
22172;SDS011;11252;50.596;17.648;2022-12-10T05:53:53;104.07;;;51.53;;
22172;SDS011;11252;50.596;17.648;2022-12-10T05:56:22;104.20;;;48.03;;
22172;SDS011;11252;50.596;17.648;2022-12-10T05:58:51;94.63;;;49.10;;
22172;SDS011;11252;50.596;17.648;2022-12-10T06:01:22;90.83;;;46.00;;
22172;SDS011;11252;50.596;17.648;2022-12-10T06:03:51;102.10;;;45.77;;
22172;SDS011;11252;50.596;17.648;2022-12-10T06:06:23;118.03;;;61.77;;
22172;SDS011;11252;50.596;17.648;2022-12-10T06:08:55;99.57;;;46.57;;
22172;SDS011;11252;50.596;17.648;2022-12-10T06:11:23;112.17;;;55.07;;
22172;SDS011;11252;50.596;17.648;2022-12-10T06:13:53;98.37;;;47.07;;
22172;SDS011;11252;50.596;17.648;2022-12-10T06:16:22;98.90;;;47.83;;
22172;SDS011;11252;50.596;17.648;2022-12-10T06:18:51;106.20;;;52.23;;
22172;SDS011;11252;50.596;17.648;2022-12-10T06:21:20;87.57;;;43.23;;
22172;SDS011;11252;50.596;17.648;2022-12-10T06:23:48;101.20;;;43.90;;
22172;SDS011;11252;50.596;17.648;2022-12-10T06:26:20;107.17;;;53.97;;
22172;SDS011;11252;50.596;17.648;2022-12-10T06:28:50;96.97;;;46.83;;
22172;SDS011;11252;50.596;17.648;2022-12-10T06:31:19;149.93;;;91.23;;
22172;SDS011;11252;50.596;17.648;2022-12-10T06:33:47;136.47;;;77.27;;
22172;SDS011;11252;50.596;17.648;2022-12-10T06:36:16;100.97;;;48.00;;
22172;SDS011;11252;50.596;17.648;2022-12-10T06:38:45;92.13;;;43.87;;
22172;SDS011;11252;50.596;17.648;2022-12-10T06:41:14;94.17;;;42.63;;
22172;SDS011;11252;50.596;17.648;2022-12-10T06:43:43;105.00;;;46.47;;
22172;SDS011;11252;50.596;17.648;2022-12-10T06:46:11;98.10;;;45.67;;
22172;SDS011;11252;50.596;17.648;2022-12-10T06:48:40;106.97;;;51.53;;
22172;SDS011;11252;50.596;17.648;2022-12-10T06:51:08;106.73;;;49.57;;
22172;SDS011;11252;50.596;17.648;2022-12-10T06:53:36;112.27;;;54.80;;
22172;SDS011;11252;50.596;17.648;2022-12-10T06:56:06;100.93;;;48.13;;
22172;SDS011;11252;50.596;17.648;2022-12-10T06:58:34;104.07;;;44.77;;
22172;SDS011;11252;50.596;17.648;2022-12-10T07:01:09;106.33;;;46.10;;
22172;SDS011;11252;50.596;17.648;2022-12-10T07:03:41;100.43;;;46.73;;
22172;SDS011;11252;50.596;17.648;2022-12-10T07:06:10;102.47;;;44.47;;
22172;SDS011;11252;50.596;17.648;2022-12-10T07:08:39;94.83;;;44.30;;
22172;SDS011;11252;50.596;17.648;2022-12-10T07:11:07;104.03;;;44.57;;
22172;SDS011;11252;50.596;17.648;2022-12-10T07:13:37;106.73;;;46.37;;
22172;SDS011;11252;50.596;17.648;2022-12-10T07:16:15;106.83;;;45.70;;
22172;SDS011;11252;50.596;17.648;2022-12-10T07:18:47;105.07;;;45.53;;
22172;SDS011;11252;50.596;17.648;2022-12-10T07:23:53;104.13;;;45.47;;
22172;SDS011;11252;50.596;17.648;2022-12-10T07:26:25;104.63;;;46.17;;
22172;SDS011;11252;50.596;17.648;2022-12-10T07:28:54;118.70;;;44.30;;
22172;SDS011;11252;50.596;17.648;2022-12-10T07:31:22;110.87;;;42.77;;
22172;SDS011;11252;50.596;17.648;2022-12-10T07:33:50;111.40;;;39.73;;
22172;SDS011;11252;50.596;17.648;2022-12-10T07:36:18;126.13;;;44.63;;
22172;SDS011;11252;50.596;17.648;2022-12-10T07:38:47;113.73;;;40.60;;
22172;SDS011;11252;50.596;17.648;2022-12-10T07:41:14;108.07;;;42.20;;
22172;SDS011;11252;50.596;17.648;2022-12-10T07:43:43;107.47;;;39.03;;
22172;SDS011;11252;50.596;17.648;2022-12-10T07:46:16;107.93;;;38.10;;
22172;SDS011;11252;50.596;17.648;2022-12-10T07:48:49;100.47;;;38.00;;
22172;SDS011;11252;50.596;17.648;2022-12-10T07:51:17;135.90;;;56.37;;
22172;SDS011;11252;50.596;17.648;2022-12-10T07:53:47;114.77;;;42.27;;
22172;SDS011;11252;50.596;17.648;2022-12-10T07:56:16;113.50;;;41.00;;
22172;SDS011;11252;50.596;17.648;2022-12-10T07:58:44;114.43;;;41.00;;
22172;SDS011;11252;50.596;17.648;2022-12-10T08:01:13;112.53;;;37.60;;
22172;SDS011;11252;50.596;17.648;2022-12-10T08:03:42;106.23;;;38.50;;
22172;SDS011;11252;50.596;17.648;2022-12-10T08:06:13;117.73;;;41.60;;
22172;SDS011;11252;50.596;17.648;2022-12-10T08:08:46;116.17;;;42.53;;
22172;SDS011;11252;50.596;17.648;2022-12-10T08:11:14;109.23;;;40.77;;
22172;SDS011;11252;50.596;17.648;2022-12-10T08:13:43;95.53;;;35.33;;
22172;SDS011;11252;50.596;17.648;2022-12-10T08:16:12;101.87;;;37.60;;
22172;SDS011;11252;50.596;17.648;2022-12-10T08:18:55;108.13;;;37.50;;
22172;SDS011;11252;50.596;17.648;2022-12-10T08:21:25;101.60;;;37.27;;
22172;SDS011;11252;50.596;17.648;2022-12-10T08:23:54;102.77;;;35.73;;
22172;SDS011;11252;50.596;17.648;2022-12-10T08:26:23;94.37;;;36.70;;
22172;SDS011;11252;50.596;17.648;2022-12-10T08:28:52;97.10;;;37.30;;
22172;SDS011;11252;50.596;17.648;2022-12-10T08:31:21;106.03;;;41.67;;
22172;SDS011;11252;50.596;17.648;2022-12-10T08:33:50;114.33;;;44.17;;
22172;SDS011;11252;50.596;17.648;2022-12-10T08:36:18;133.20;;;58.20;;
22172;SDS011;11252;50.596;17.648;2022-12-10T08:38:46;108.63;;;42.27;;
22172;SDS011;11252;50.596;17.648;2022-12-10T08:41:14;103.93;;;43.70;;
22172;SDS011;11252;50.596;17.648;2022-12-10T08:43:44;117.13;;;41.97;;
22172;SDS011;11252;50.596;17.648;2022-12-10T08:46:12;114.30;;;43.43;;
22172;SDS011;11252;50.596;17.648;2022-12-10T08:48:40;106.43;;;41.33;;
22172;SDS011;11252;50.596;17.648;2022-12-10T08:51:09;93.20;;;39.23;;
22172;SDS011;11252;50.596;17.648;2022-12-10T08:53:39;100.83;;;38.90;;
22172;SDS011;11252;50.596;17.648;2022-12-10T08:56:07;99.97;;;37.97;;
22172;SDS011;11252;50.596;17.648;2022-12-10T08:58:35;145.17;;;71.90;;
22172;SDS011;11252;50.596;17.648;2022-12-10T09:01:11;105.63;;;46.10;;
22172;SDS011;11252;50.596;17.648;2022-12-10T09:03:41;106.60;;;41.70;;
22172;SDS011;11252;50.596;17.648;2022-12-10T09:06:10;99.07;;;40.57;;
22172;SDS011;11252;50.596;17.648;2022-12-10T09:08:40;102.10;;;38.97;;
22172;SDS011;11252;50.596;17.648;2022-12-10T09:11:09;106.13;;;40.87;;
22172;SDS011;11252;50.596;17.648;2022-12-10T09:13:39;93.20;;;39.50;;
22172;SDS011;11252;50.596;17.648;2022-12-10T09:16:07;97.90;;;44.20;;
22172;SDS011;11252;50.596;17.648;2022-12-10T09:18:35;98.10;;;38.20;;
22172;SDS011;11252;50.596;17.648;2022-12-10T09:21:06;103.57;;;44.97;;
22172;SDS011;11252;50.596;17.648;2022-12-10T09:23:35;96.87;;;39.60;;
22172;SDS011;11252;50.596;17.648;2022-12-10T09:26:09;104.97;;;48.37;;
22172;SDS011;11252;50.596;17.648;2022-12-10T09:28:38;96.00;;;42.63;;
22172;SDS011;11252;50.596;17.648;2022-12-10T09:31:06;90.80;;;35.20;;
22172;SDS011;11252;50.596;17.648;2022-12-10T09:33:42;85.60;;;37.37;;
22172;SDS011;11252;50.596;17.648;2022-12-10T09:36:11;93.03;;;38.47;;
22172;SDS011;11252;50.596;17.648;2022-12-10T09:38:40;87.53;;;37.87;;
22172;SDS011;11252;50.596;17.648;2022-12-10T09:45:01;87.53;;;35.90;;
22172;SDS011;11252;50.596;17.648;2022-12-10T09:47:08;93.87;;;38.70;;
22172;SDS011;11252;50.596;17.648;2022-12-10T09:49:42;86.97;;;36.60;;
22172;SDS011;11252;50.596;17.648;2022-12-10T09:52:20;79.97;;;35.83;;
22172;SDS011;11252;50.596;17.648;2022-12-10T09:54:57;83.63;;;34.97;;
22172;SDS011;11252;50.596;17.648;2022-12-10T09:57:40;85.87;;;36.90;;
22172;SDS011;11252;50.596;17.648;2022-12-10T10:02:38;95.97;;;51.27;;
22172;SDS011;11252;50.596;17.648;2022-12-10T10:05:10;95.97;;;48.23;;
22172;SDS011;11252;50.596;17.648;2022-12-10T10:07:51;77.67;;;34.60;;
22172;SDS011;11252;50.596;17.648;2022-12-10T10:10:37;123.87;;;65.47;;
22172;SDS011;11252;50.596;17.648;2022-12-10T10:15:40;78.63;;;33.13;;
22172;SDS011;11252;50.596;17.648;2022-12-10T10:18:29;101.70;;;44.40;;
22172;SDS011;11252;50.596;17.648;2022-12-10T10:21:09;77.60;;;34.33;;
22172;SDS011;11252;50.596;17.648;2022-12-10T10:23:53;75.00;;;33.43;;
22172;SDS011;11252;50.596;17.648;2022-12-10T10:26:23;71.73;;;31.77;;
22172;SDS011;11252;50.596;17.648;2022-12-10T10:28:54;87.03;;;35.83;;
22172;SDS011;11252;50.596;17.648;2022-12-10T10:31:27;82.00;;;34.63;;
22172;SDS011;11252;50.596;17.648;2022-12-10T10:34:00;74.53;;;32.83;;
22172;SDS011;11252;50.596;17.648;2022-12-10T10:36:31;73.00;;;32.40;;
22172;SDS011;11252;50.596;17.648;2022-12-10T10:39:10;74.87;;;33.63;;
22172;SDS011;11252;50.596;17.648;2022-12-10T10:41:45;70.30;;;32.77;;
22172;SDS011;11252;50.596;17.648;2022-12-10T10:44:25;82.23;;;36.90;;
22172;SDS011;11252;50.596;17.648;2022-12-10T10:47:01;75.83;;;34.07;;
22172;SDS011;11252;50.596;17.648;2022-12-10T10:49:32;71.57;;;32.83;;
22172;SDS011;11252;50.596;17.648;2022-12-10T10:52:21;72.03;;;31.77;;
22172;SDS011;11252;50.596;17.648;2022-12-10T10:54:48;70.70;;;32.37;;
22172;SDS011;11252;50.596;17.648;2022-12-10T10:57:29;69.87;;;31.70;;
22172;SDS011;11252;50.596;17.648;2022-12-10T11:00:17;71.73;;;31.50;;
22172;SDS011;11252;50.596;17.648;2022-12-10T11:02:46;71.77;;;33.53;;
22172;SDS011;11252;50.596;17.648;2022-12-10T11:08:05;75.90;;;35.37;;
22172;SDS011;11252;50.596;17.648;2022-12-10T11:10:46;70.83;;;31.97;;
22172;SDS011;11252;50.596;17.648;2022-12-10T11:15:54;69.17;;;31.50;;
22172;SDS011;11252;50.596;17.648;2022-12-10T11:18:33;68.23;;;31.97;;
22172;SDS011;11252;50.596;17.648;2022-12-10T11:21:15;64.83;;;30.17;;
22172;SDS011;11252;50.596;17.648;2022-12-10T11:23:57;74.07;;;32.63;;
22172;SDS011;11252;50.596;17.648;2022-12-10T11:29:17;80.03;;;35.30;;
22172;SDS011;11252;50.596;17.648;2022-12-10T11:34:35;80.70;;;38.40;;
22172;SDS011;11252;50.596;17.648;2022-12-10T11:37:30;68.53;;;34.57;;
22172;SDS011;11252;50.596;17.648;2022-12-10T11:43:00;81.17;;;35.77;;
22172;SDS011;11252;50.596;17.648;2022-12-10T11:54:12;69.13;;;31.23;;
22172;SDS011;11252;50.596;17.648;2022-12-10T11:56:45;72.53;;;33.37;;
22172;SDS011;11252;50.596;17.648;2022-12-10T11:59:23;71.60;;;34.93;;
22172;SDS011;11252;50.596;17.648;2022-12-10T12:05:08;69.10;;;33.43;;
22172;SDS011;11252;50.596;17.648;2022-12-10T12:08:00;88.93;;;39.37;;
22172;SDS011;11252;50.596;17.648;2022-12-10T12:16:24;87.63;;;37.63;;
22172;SDS011;11252;50.596;17.648;2022-12-10T12:19:05;81.20;;;37.93;;
22172;SDS011;11252;50.596;17.648;2022-12-10T12:21:49;91.67;;;38.63;;
22172;SDS011;11252;50.596;17.648;2022-12-10T12:26:53;85.73;;;38.23;;
22172;SDS011;11252;50.596;17.648;2022-12-10T12:29:26;89.13;;;40.67;;
22172;SDS011;11252;50.596;17.648;2022-12-10T12:32:15;94.33;;;41.53;;
22172;SDS011;11252;50.596;17.648;2022-12-10T12:34:59;93.77;;;39.93;;
22172;SDS011;11252;50.596;17.648;2022-12-10T12:38:06;103.87;;;42.63;;
22172;SDS011;11252;50.596;17.648;2022-12-10T12:40:43;93.23;;;42.87;;
22172;SDS011;11252;50.596;17.648;2022-12-10T12:43:19;102.27;;;44.40;;
22172;SDS011;11252;50.596;17.648;2022-12-10T12:45:52;89.67;;;39.57;;
22172;SDS011;11252;50.596;17.648;2022-12-10T12:51:21;90.20;;;39.57;;
22172;SDS011;11252;50.596;17.648;2022-12-10T12:53:50;90.07;;;41.43;;
22172;SDS011;11252;50.596;17.648;2022-12-10T12:59:24;98.77;;;41.23;;
22172;SDS011;11252;50.596;17.648;2022-12-10T13:05:12;102.30;;;46.07;;
22172;SDS011;11252;50.596;17.648;2022-12-10T13:10:59;101.40;;;46.03;;
22172;SDS011;11252;50.596;17.648;2022-12-10T13:32:19;109.00;;;52.87;;
22172;SDS011;11252;50.596;17.648;2022-12-10T13:35:15;88.03;;;42.83;;
22172;SDS011;11252;50.596;17.648;2022-12-10T13:37:37;89.90;;;42.60;;
22172;SDS011;11252;50.596;17.648;2022-12-10T13:46:20;148.40;;;101.20;;
22172;SDS011;11252;50.596;17.648;2022-12-10T13:48:54;94.17;;;48.90;;
22172;SDS011;11252;50.596;17.648;2022-12-10T13:57:27;85.50;;;44.23;;
22172;SDS011;11252;50.596;17.648;2022-12-10T14:00:21;90.30;;;45.27;;
22172;SDS011;11252;50.596;17.648;2022-12-10T14:03:13;96.70;;;44.87;;
22172;SDS011;11252;50.596;17.648;2022-12-10T14:06:34;82.80;;;41.53;;
22172;SDS011;11252;50.596;17.648;2022-12-10T14:08:54;79.93;;;42.17;;
22172;SDS011;11252;50.596;17.648;2022-12-10T14:11:26;93.20;;;46.77;;
22172;SDS011;11252;50.596;17.648;2022-12-10T14:14:04;88.63;;;44.60;;
22172;SDS011;11252;50.596;17.648;2022-12-10T14:16:37;88.40;;;44.00;;
22172;SDS011;11252;50.596;17.648;2022-12-10T14:19:08;116.83;;;68.87;;
22172;SDS011;11252;50.596;17.648;2022-12-10T14:21:41;104.07;;;56.07;;
22172;SDS011;11252;50.596;17.648;2022-12-10T14:27:15;89.37;;;45.57;;
22172;SDS011;11252;50.596;17.648;2022-12-10T14:29:51;97.03;;;53.90;;
22172;SDS011;11252;50.596;17.648;2022-12-10T14:32:25;82.03;;;43.30;;
22172;SDS011;11252;50.596;17.648;2022-12-10T14:35:03;95.17;;;54.60;;
22172;SDS011;11252;50.596;17.648;2022-12-10T14:37:36;85.10;;;43.87;;
22172;SDS011;11252;50.596;17.648;2022-12-10T14:40:07;121.00;;;63.40;;
22172;SDS011;11252;50.596;17.648;2022-12-10T14:42:39;84.90;;;46.07;;
22172;SDS011;11252;50.596;17.648;2022-12-10T14:45:07;85.57;;;46.10;;
22172;SDS011;11252;50.596;17.648;2022-12-10T14:47:41;107.97;;;53.73;;
22172;SDS011;11252;50.596;17.648;2022-12-10T14:50:15;85.47;;;44.63;;
22172;SDS011;11252;50.596;17.648;2022-12-10T14:52:44;90.47;;;46.57;;
22172;SDS011;11252;50.596;17.648;2022-12-10T14:55:20;105.73;;;53.40;;
22172;SDS011;11252;50.596;17.648;2022-12-10T14:57:54;89.47;;;46.87;;
22172;SDS011;11252;50.596;17.648;2022-12-10T15:00:26;87.67;;;45.37;;
22172;SDS011;11252;50.596;17.648;2022-12-10T15:02:54;96.53;;;50.60;;
22172;SDS011;11252;50.596;17.648;2022-12-10T15:05:27;88.80;;;45.63;;
22172;SDS011;11252;50.596;17.648;2022-12-10T15:08:03;83.97;;;45.90;;
22172;SDS011;11252;50.596;17.648;2022-12-10T15:10:44;94.07;;;51.23;;
22172;SDS011;11252;50.596;17.648;2022-12-10T15:13:17;105.07;;;54.23;;
22172;SDS011;11252;50.596;17.648;2022-12-10T15:15:51;96.03;;;48.93;;
22172;SDS011;11252;50.596;17.648;2022-12-10T15:18:20;94.13;;;49.77;;
22172;SDS011;11252;50.596;17.648;2022-12-10T15:21:03;88.60;;;48.03;;
22172;SDS011;11252;50.596;17.648;2022-12-10T15:23:49;83.53;;;43.10;;
22172;SDS011;11252;50.596;17.648;2022-12-10T15:26:34;79.33;;;43.00;;
22172;SDS011;11252;50.596;17.648;2022-12-10T15:32:10;79.07;;;42.87;;
22172;SDS011;11252;50.596;17.648;2022-12-10T15:34:55;75.40;;;41.63;;
22172;SDS011;11252;50.596;17.648;2022-12-10T15:37:26;80.10;;;42.40;;
22172;SDS011;11252;50.596;17.648;2022-12-10T15:40:02;83.00;;;44.30;;
22172;SDS011;11252;50.596;17.648;2022-12-10T15:45:26;88.57;;;44.60;;
22172;SDS011;11252;50.596;17.648;2022-12-10T15:48:06;81.03;;;42.43;;
22172;SDS011;11252;50.596;17.648;2022-12-10T15:50:38;74.17;;;41.13;;
22172;SDS011;11252;50.596;17.648;2022-12-10T15:53:12;79.63;;;43.70;;
22172;SDS011;11252;50.596;17.648;2022-12-10T15:55:42;81.53;;;44.07;;
22172;SDS011;11252;50.596;17.648;2022-12-10T15:58:11;83.03;;;44.57;;
22172;SDS011;11252;50.596;17.648;2022-12-10T16:00:39;85.37;;;45.60;;
22172;SDS011;11252;50.596;17.648;2022-12-10T16:03:11;80.73;;;43.90;;
22172;SDS011;11252;50.596;17.648;2022-12-10T16:05:40;82.90;;;44.87;;
22172;SDS011;11252;50.596;17.648;2022-12-10T16:10:51;81.07;;;44.57;;
22172;SDS011;11252;50.596;17.648;2022-12-10T16:13:22;86.57;;;47.03;;
22172;SDS011;11252;50.596;17.648;2022-12-10T16:15:54;85.40;;;44.07;;
22172;SDS011;11252;50.596;17.648;2022-12-10T16:18:24;88.03;;;48.53;;
22172;SDS011;11252;50.596;17.648;2022-12-10T16:20:59;93.40;;;47.43;;
22172;SDS011;11252;50.596;17.648;2022-12-10T16:23:26;91.13;;;47.40;;
22172;SDS011;11252;50.596;17.648;2022-12-10T16:25:54;91.37;;;46.67;;
22172;SDS011;11252;50.596;17.648;2022-12-10T16:28:22;88.83;;;46.13;;
22172;SDS011;11252;50.596;17.648;2022-12-10T16:30:53;97.00;;;51.63;;
22172;SDS011;11252;50.596;17.648;2022-12-10T16:33:23;91.53;;;48.00;;